Terminal Aerodrome Forecast
Issued by NWS Quad Cities IA IL

Home | Current Version | Previous Version | Text Only | Print | Product List | Glossary On
Versions: 1 2 3 4 5 6 7 8 9 10 11 12 13 14 15 16
000
FTUS43 KDVN 172300
TAFDBQ
TAF
KDBQ 172320Z 1800/1824 12002KT P6SM SKC
     FM181000 11005KT P6SM FEW030
      TEMPO 1810/1814 4SM BR SCT015
     FM181800 12007KT P6SM SKC=

USA.gov is the U.S. government's official web portal to all federal, state and local government web resources and services.